createdAt,value
2022-08-05T00:01:27.756Z,96897.63
2022-08-05T00:03:56.988Z,96892.72
2022-08-05T00:06:30.676Z,96888.50
2022-08-05T00:09:00.886Z,96885.00
2022-08-05T00:11:34.682Z,96881.47
2022-08-05T00:14:12.981Z,96884.97
2022-08-05T00:16:52.670Z,96878.66
2022-08-05T00:19:24.911Z,96870.94
2022-08-05T00:22:00.005Z,96868.84
2022-08-05T00:24:31.014Z,96867.44
2022-08-05T00:27:04.637Z,96872.34
2022-08-05T00:29:37.965Z,96877.25
2022-08-05T00:32:12.278Z,96874.41
2022-08-05T00:35:03.826Z,96886.34
2022-08-05T00:37:50.737Z,96886.34
2022-08-05T00:40:28.240Z,96896.16
2022-08-05T00:43:00.719Z,96893.34
2022-08-05T00:45:42.849Z,96888.44
2022-08-05T00:48:12.525Z,96900.38
2022-08-05T00:50:41.891Z,96916.44
2022-08-05T00:53:59.933Z,96910.16
2022-08-05T00:55:58.154Z,96912.28
2022-08-05T00:58:27.472Z,96922.78
2022-08-05T01:00:56.017Z,96923.47
2022-08-05T01:03:24.234Z,96917.78
2022-08-05T01:05:57.958Z,96913.59
2022-08-05T01:08:40.761Z,96914.28
2022-08-05T01:11:22.613Z,96917.78
2022-08-05T01:14:15.558Z,96908.03
2022-08-05T01:16:59.123Z,96902.38
2022-08-05T01:20:01.940Z,96899.50
2022-08-05T01:22:34.096Z,96893.91
2022-08-05T01:25:23.013Z,96898.84
2022-08-05T01:28:04.862Z,96890.41
2022-08-05T01:30:38.221Z,96890.41
2022-08-05T01:33:08.641Z,96886.19
2022-08-05T01:35:51.153Z,96881.25
2022-08-05T01:38:27.147Z,96870.75
2022-08-05T01:40:59.864Z,96860.94
2022-08-05T01:43:28.921Z,96865.16
2022-08-05T01:45:57.159Z,96861.59
2022-08-05T01:48:26.948Z,96859.47
2022-08-05T01:50:54.186Z,96869.28
2022-08-05T01:53:55.139Z,96872.00
2022-08-05T01:56:09.792Z,96859.31
2022-08-05T01:58:45.172Z,96857.22
2022-08-05T02:01:25.361Z,96861.41
2022-08-05T02:03:55.886Z,96855.09
2022-08-05T02:06:37.910Z,96853.66
2022-08-05T02:09:06.442Z,96850.81
2022-08-05T02:11:42.142Z,96837.53
2022-08-05T02:14:12.908Z,96838.22
2022-08-05T02:16:45.862Z,96836.09
2022-08-05T02:19:27.491Z,96829.75
2022-08-05T02:22:25.822Z,96828.31
2022-08-05T02:25:00.177Z,96825.47
2022-08-05T02:27:30.111Z,96822.63
2022-08-05T02:30:14.558Z,96824.00
2022-08-05T02:32:43.650Z,96828.19
2022-08-05T02:35:14.255Z,96831.69
2022-08-05T02:37:43.022Z,96837.25
2022-08-05T02:40:16.634Z,96838.59
2022-08-05T02:42:43.947Z,96850.44
2022-08-05T02:45:20.785Z,96862.38
2022-08-05T02:48:07.515Z,96875.59
2022-08-05T02:50:43.994Z,96886.75
2022-08-05T02:53:18.849Z,96901.44
2022-08-05T02:55:54.169Z,96905.69
2022-08-05T02:58:23.035Z,96902.19
2022-08-05T03:00:55.929Z,96907.09
2022-08-05T03:03:23.528Z,96923.13
2022-08-05T03:06:56.097Z,96941.34
2022-08-05T03:08:42.618Z,96959.47
2022-08-05T03:11:56.620Z,96995.84
2022-08-05T03:14:13.591Z,97028.09
2022-08-05T03:16:40.654Z,97050.59
2022-08-05T03:19:12.918Z,97053.44
2022-08-05T03:21:48.842Z,97053.38
2022-08-05T03:24:18.689Z,97046.38
2022-08-05T03:26:58.077Z,97042.81
2022-08-05T03:29:24.751Z,97046.16
2022-08-05T03:32:12.001Z,97069.16
2022-08-05T03:34:41.258Z,97093.56
2022-08-05T03:37:07.941Z,97097.72
2022-08-05T03:39:38.297Z,97108.22
2022-08-05T03:42:21.382Z,97104.59
2022-08-05T03:44:54.117Z,97108.78
2022-08-05T03:47:21.175Z,97128.28
2022-08-05T03:49:51.715Z,97130.41
2022-08-05T03:52:49.155Z,97143.06
2022-08-05T03:56:05.165Z,97142.34
2022-08-05T03:58:11.022Z,97123.84
2022-08-05T04:00:39.263Z,97135.81
2022-08-05T04:03:15.006Z,97147.00
2022-08-05T04:05:59.062Z,97153.34
2022-08-05T04:08:35.053Z,97160.38
2022-08-05T04:11:04.754Z,97178.53
2022-08-05T04:13:49.727Z,97183.31
2022-08-05T04:16:25.462Z,97163.00
2022-08-05T04:19:00.078Z,97156.69
2022-08-05T04:22:09.812Z,97153.00
2022-08-05T04:24:19.396Z,97156.38
2022-08-05T04:26:50.030Z,97155.09
2022-08-05T04:29:17.087Z,97149.56
2022-08-05T04:31:43.854Z,97138.28
2022-08-05T04:34:19.047Z,97138.13
2022-08-05T04:36:57.855Z,97141.78
2022-08-05T04:39:24.605Z,97134.78
2022-08-05T04:41:54.585Z,97128.34
2022-08-05T04:44:29.276Z,97123.28
2022-08-05T04:47:09.012Z,97125.19
2022-08-05T04:50:01.645Z,97133.44
2022-08-05T04:52:29.104Z,97132.72
2022-08-05T04:55:00.189Z,97135.50
2022-08-05T04:57:40.801Z,97139.66
2022-08-05T05:00:15.294Z,97139.75
2022-08-05T05:02:43.601Z,97132.06
2022-08-05T05:05:26.363Z,97136.28
2022-08-05T05:08:00.919Z,97132.78
2022-08-05T05:10:30.127Z,97129.97
2022-08-05T05:12:57.722Z,97140.53
2022-08-05T05:15:57.436Z,97156.00
2022-08-05T05:18:15.284Z,97164.19
2022-08-05T05:20:55.245Z,97166.13
2022-08-05T05:23:21.870Z,97172.28
2022-08-05T05:25:48.561Z,97190.38
2022-08-05T05:28:15.236Z,97184.03
2022-08-05T05:30:42.420Z,97200.72
2022-08-05T05:33:16.970Z,97202.09
2022-08-05T05:35:45.609Z,97192.41
2022-08-05T05:38:13.308Z,97192.47
2022-08-05T05:40:50.068Z,97187.56
2022-08-05T05:43:22.406Z,97177.88
2022-08-05T05:46:13.684Z,97157.72
2022-08-05T05:48:43.958Z,97160.53
2022-08-05T05:51:15.209Z,97157.84
2022-08-05T05:53:54.467Z,97169.03
2022-08-05T05:56:33.234Z,97172.53
2022-08-05T05:59:07.624Z,97189.94
2022-08-05T06:01:40.185Z,97167.63
2022-08-05T06:04:12.686Z,97163.41
2022-08-05T06:06:47.423Z,97156.44
2022-08-05T06:09:17.532Z,97154.97
2022-08-05T06:12:01.386Z,97160.53
2022-08-05T06:14:34.696Z,97165.44
2022-08-05T06:17:22.062Z,97163.53
2022-08-05T06:19:56.787Z,97170.75
2022-08-05T06:22:28.795Z,97177.06
2022-08-05T06:24:55.895Z,97190.41
2022-08-05T06:28:11.467Z,97196.03
2022-08-05T06:30:16.808Z,97189.09
2022-08-05T06:32:48.104Z,97169.47
2022-08-05T06:36:03.017Z,97141.50
2022-08-05T06:38:11.696Z,97153.41
2022-08-05T06:40:42.254Z,97170.31
2022-08-05T06:43:57.544Z,97173.22
2022-08-05T06:46:04.053Z,97167.75
2022-08-05T06:48:56.186Z,97159.50
2022-08-05T06:51:29.481Z,97147.69
2022-08-05T06:53:58.936Z,97144.97
2022-08-05T06:56:27.031Z,97123.31
2022-08-05T06:58:55.017Z,97116.38
2022-08-05T07:01:22.649Z,97115.72
2022-08-05T07:03:49.982Z,97105.28
2022-08-05T07:06:17.441Z,97106.00
2022-08-05T07:08:51.696Z,97098.31
2022-08-05T07:11:22.227Z,97086.47
2022-08-05T07:14:15.360Z,97078.78
2022-08-05T07:18:01.835Z,97073.91
2022-08-05T07:22:28.540Z,97070.53
2022-08-05T07:25:23.376Z,97062.16
2022-08-05T07:27:57.305Z,97054.56
2022-08-05T07:30:34.311Z,97055.28
2022-08-05T07:33:09.066Z,97058.84
2022-08-05T07:36:03.694Z,97065.13
2022-08-05T07:38:34.237Z,97070.03
2022-08-05T07:41:35.168Z,97076.25
2022-08-05T07:43:57.496Z,97083.91
2022-08-05T07:46:29.174Z,97084.66
2022-08-05T07:49:01.798Z,97085.47
2022-08-05T07:51:48.711Z,97086.97
2022-08-05T07:54:26.424Z,97094.03
2022-08-05T07:57:13.886Z,97081.47
2022-08-05T07:59:41.221Z,97081.53
2022-08-05T08:02:15.968Z,97081.56
2022-08-05T08:04:45.428Z,97085.09
2022-08-05T08:07:13.525Z,97083.75
2022-08-05T08:09:40.618Z,97076.75
2022-08-05T08:12:35.429Z,97076.09
2022-08-05T08:14:54.327Z,97075.47
2022-08-05T08:17:21.602Z,97092.25
2022-08-05T08:20:44.014Z,97093.00
2022-08-05T08:22:35.786Z,97097.09
2022-08-05T08:25:03.949Z,97106.22
2022-08-05T08:27:44.988Z,97118.13
2022-08-05T08:30:30.187Z,97116.00
2022-08-05T08:33:04.515Z,97113.09
2022-08-05T08:35:41.596Z,97129.28
2022-08-05T08:38:35.094Z,97122.22
2022-08-05T08:41:07.344Z,97121.63
2022-08-05T08:45:16.503Z,97114.00
2022-08-05T08:46:24.359Z,97119.72
2022-08-05T08:49:07.900Z,97121.88
2022-08-05T08:52:03.171Z,97124.66
2022-08-05T08:54:27.261Z,97131.66
2022-08-05T08:56:54.447Z,97128.84
2022-08-05T08:59:27.708Z,97121.94
2022-08-05T09:02:01.800Z,97118.47
2022-08-05T09:04:30.134Z,97124.84
2022-08-05T09:06:58.469Z,97124.16
2022-08-05T09:09:26.082Z,97119.28
2022-08-05T09:12:20.722Z,97113.72
2022-08-05T09:14:58.318Z,97114.50
2022-08-05T09:17:42.717Z,97121.56
2022-08-05T09:20:13.264Z,97127.13
2022-08-05T09:23:18.470Z,97136.94
2022-08-05T09:26:02.659Z,97134.88
2022-08-05T09:28:33.492Z,97127.19
2022-08-05T09:31:43.286Z,97125.84
2022-08-05T09:33:59.340Z,97122.38
2022-08-05T09:36:59.387Z,97122.41
2022-08-05T09:39:41.485Z,97120.38
2022-08-05T09:42:24.131Z,97123.88
2022-08-05T09:44:57.214Z,97116.88
2022-08-05T09:47:48.061Z,97121.06
2022-08-05T09:50:36.072Z,97114.09
2022-08-05T09:53:05.765Z,97120.44
2022-08-05T09:55:56.619Z,97114.13
2022-08-05T09:58:23.268Z,97107.88
2022-08-05T10:01:14.750Z,97098.06
2022-08-05T10:04:00.101Z,97107.22
2022-08-05T10:06:28.218Z,97102.31
2022-08-05T10:08:55.791Z,97099.50
2022-08-05T10:11:22.961Z,97094.59
2022-08-05T10:13:54.538Z,97104.44
2022-08-05T10:16:41.635Z,97105.16
2022-08-05T10:19:10.218Z,97097.47
2022-08-05T10:21:40.255Z,97107.31
2022-08-05T10:24:13.517Z,97105.22
2022-08-05T10:26:51.244Z,97106.63
2022-08-05T10:29:24.179Z,97104.50
2022-08-05T10:32:51.579Z,97109.47
2022-08-05T10:35:01.098Z,97109.47
2022-08-05T10:37:40.363Z,97122.09
2022-08-05T10:40:38.999Z,97124.88
2022-08-05T10:43:48.602Z,97124.88
2022-08-05T10:46:18.407Z,97130.50
2022-08-05T10:49:08.109Z,97130.53
2022-08-05T10:51:48.610Z,97131.22
2022-08-05T10:54:56.151Z,97135.47
2022-08-05T10:57:31.001Z,97129.19
2022-08-05T11:00:20.670Z,97130.59
2022-08-05T11:03:23.448Z,97136.22
2022-08-05T11:06:15.674Z,97132.69
2022-08-05T11:09:10.957Z,97130.59
2022-08-05T11:11:52.433Z,97135.53
2022-08-05T11:14:42.906Z,97140.47
2022-08-05T11:18:09.525Z,97139.81
2022-08-05T11:20:32.507Z,97141.91
2022-08-05T11:23:05.752Z,97144.72
2022-08-05T11:26:04.584Z,97136.97
2022-08-05T11:28:32.937Z,97144.00
2022-08-05T11:31:06.540Z,97154.53
2022-08-05T11:33:46.553Z,97158.72
2022-08-05T11:36:34.617Z,97151.72
2022-08-05T11:39:08.472Z,97165.09
2022-08-05T11:42:01.322Z,97153.13
2022-08-05T11:44:52.810Z,97147.53
2022-08-05T11:47:17.360Z,97150.31
2022-08-05T11:49:49.717Z,97150.34
2022-08-05T11:52:31.001Z,97163.00
2022-08-05T11:54:58.884Z,97156.72
2022-08-05T11:57:30.633Z,97163.72
2022-08-05T12:00:25.906Z,97159.53
2022-08-05T12:02:56.554Z,97170.75
2022-08-05T12:05:36.147Z,97167.94
2022-08-05T12:08:10.832Z,97162.34
2022-08-05T12:10:45.177Z,97171.47
2022-08-05T12:13:28.042Z,97169.38
2022-08-05T12:16:14.484Z,97167.94
2022-08-05T12:18:42.596Z,97178.47
2022-08-05T12:21:18.789Z,97168.63
2022-08-05T12:24:07.788Z,97168.63
2022-08-05T12:26:44.112Z,97175.66
2022-08-05T12:29:39.034Z,97180.59
2022-08-05T12:32:07.441Z,97196.75
2022-08-05T12:34:37.707Z,97186.19
2022-08-05T12:37:16.969Z,97198.09
2022-08-05T12:39:45.002Z,97194.56
2022-08-05T12:42:19.982Z,97202.28
2022-08-05T12:44:47.606Z,97193.16
2022-08-05T12:47:26.356Z,97188.28
2022-08-05T12:50:04.430Z,97194.59
2022-08-05T12:52:41.676Z,97192.50
2022-08-05T12:55:25.605Z,97198.16
2022-08-05T12:58:48.552Z,97191.81
2022-08-05T13:02:03.859Z,97202.41
2022-08-05T13:03:31.920Z,97201.03
2022-08-05T13:06:01.060Z,97205.25
2022-08-05T13:08:32.439Z,97205.22
2022-08-05T13:11:04.325Z,97208.69
2022-08-05T13:14:05.789Z,97201.00
2022-08-05T13:16:19.546Z,97205.25
2022-08-05T13:18:55.181Z,97209.44
2022-08-05T13:21:28.247Z,97208.66
2022-08-05T13:24:08.591Z,97203.75
2022-08-05T13:26:35.979Z,97209.38
2022-08-05T13:29:02.750Z,97210.06
2022-08-05T13:31:33.700Z,97211.41
2022-08-05T13:34:25.561Z,97210.69
2022-08-05T13:36:53.967Z,97214.88
2022-08-05T13:40:14.631Z,97204.38
2022-08-05T13:42:14.658Z,97209.31
2022-08-05T13:44:45.413Z,97203.69
2022-08-05T13:47:35.119Z,97199.44
2022-08-05T13:50:01.349Z,97211.38
2022-08-05T13:52:35.244Z,97212.06
2022-08-05T13:55:07.440Z,97215.59
2022-08-05T13:57:48.512Z,97201.53
2022-08-05T14:00:31.891Z,97200.22
2022-08-05T14:03:01.118Z,97207.44
2022-08-05T14:05:48.473Z,97217.94
2022-08-05T14:08:21.284Z,97229.09
2022-08-05T14:10:59.695Z,97215.00
2022-08-05T14:14:00.486Z,97215.53
2022-08-05T14:16:29.060Z,97211.25
2022-08-05T14:18:56.756Z,97220.44
2022-08-05T14:22:09.688Z,97226.19
2022-08-05T14:24:12.297Z,97220.66
2022-08-05T14:26:51.378Z,97223.50
2022-08-05T14:29:23.251Z,97220.00
2022-08-05T14:32:02.857Z,97217.16
2022-08-05T14:34:39.595Z,97214.41
2022-08-05T14:37:07.109Z,97210.91
2022-08-05T14:39:50.051Z,97215.13
2022-08-05T14:42:29.375Z,97222.88
2022-08-05T14:44:56.689Z,97225.03
2022-08-05T14:48:02.745Z,97232.06
2022-08-05T14:50:17.181Z,97215.91
2022-08-05T14:52:57.635Z,97224.31
2022-08-05T14:55:38.481Z,97227.78
2022-08-05T14:58:11.321Z,97219.97
2022-08-05T15:00:57.975Z,97227.72
2022-08-05T15:03:33.268Z,97231.28
2022-08-05T15:06:07.426Z,97223.59
2022-08-05T15:09:01.370Z,97227.16
2022-08-05T15:11:51.525Z,97226.44
2022-08-05T15:14:34.247Z,97222.19
2022-08-05T15:17:03.995Z,97219.34
2022-08-05T15:19:32.737Z,97234.81
2022-08-05T15:22:01.343Z,97230.56
2022-08-05T15:24:30.444Z,97237.53
2022-08-05T15:26:57.838Z,97238.97
2022-08-05T15:29:30.239Z,97248.75
2022-08-05T15:32:02.379Z,97243.72
2022-08-05T15:34:41.638Z,97242.22
2022-08-05T15:41:01.991Z,97239.25
2022-08-05T15:43:12.768Z,97241.34
2022-08-05T15:45:45.791Z,97241.41
2022-08-05T15:48:17.916Z,97272.28
2022-08-05T15:50:48.924Z,97255.50
2022-08-05T15:53:38.257Z,97255.69
2022-08-05T15:56:25.871Z,97261.38
2022-08-05T15:58:58.434Z,97269.00
2022-08-05T16:01:29.494Z,97265.44
2022-08-05T16:04:11.350Z,97272.50
2022-08-05T16:06:46.340Z,97266.97
2022-08-05T16:09:14.305Z,97267.75
2022-08-05T16:11:43.363Z,97270.59
2022-08-05T16:14:17.217Z,97281.97
2022-08-05T16:16:45.251Z,97281.97
2022-08-05T16:19:18.946Z,97283.38
2022-08-05T16:22:03.024Z,97282.69
2022-08-05T16:24:41.532Z,97288.34
2022-08-05T16:27:17.772Z,97293.25
2022-08-05T16:29:50.407Z,97295.31
2022-08-05T16:32:28.250Z,97295.28
2022-08-05T16:34:55.873Z,97302.31
2022-08-05T16:38:01.997Z,97299.50
2022-08-05T16:40:20.258Z,97304.41
2022-08-05T16:42:53.266Z,97296.66
2022-08-05T16:46:07.623Z,97292.47
2022-08-05T16:48:06.821Z,97304.41
2022-08-05T16:50:37.557Z,97300.94
2022-08-05T16:53:12.709Z,97300.97
2022-08-05T16:55:50.195Z,97298.22
2022-08-05T16:58:19.926Z,97303.84
2022-08-05T17:00:48.171Z,97296.09
2022-08-05T17:03:20.603Z,97302.44
2022-08-05T17:05:53.574Z,97292.53
2022-08-05T17:08:36.162Z,97291.84
2022-08-05T17:11:12.867Z,97288.31
2022-08-05T17:13:44.054Z,97294.66
2022-08-05T17:16:30.149Z,97295.38
2022-08-05T17:18:57.508Z,97301.00
2022-08-05T17:21:24.217Z,97296.81
2022-08-05T17:24:05.924Z,97307.31
2022-08-05T17:26:39.163Z,97317.00
2022-08-05T17:29:09.897Z,97308.31
2022-08-05T17:31:56.888Z,97306.72
2022-08-05T17:34:29.564Z,97316.41
2022-08-05T17:36:59.042Z,97312.75
2022-08-05T17:39:34.202Z,97304.09
2022-08-05T17:42:17.557Z,97327.75
2022-08-05T17:44:50.954Z,97318.47
2022-08-05T17:47:22.580Z,97327.41
2022-08-05T17:50:03.577Z,97327.28
2022-08-05T17:52:34.850Z,97327.16
2022-08-05T17:55:21.423Z,97318.03
2022-08-05T17:57:48.557Z,97322.94
2022-08-05T18:00:17.351Z,97321.53
2022-08-05T18:02:46.760Z,97320.84
2022-08-05T18:05:17.006Z,97330.03
2022-08-05T18:07:44.699Z,97329.25
2022-08-05T18:10:20.369Z,97335.50
2022-08-05T18:12:49.376Z,97334.69
2022-08-05T18:15:16.237Z,97340.88
2022-08-05T18:18:00.830Z,97340.78
2022-08-05T18:20:32.136Z,97346.94
2022-08-05T18:23:09.432Z,97345.44
2022-08-05T18:25:44.977Z,97341.81
2022-08-05T18:28:16.114Z,97347.47
2022-08-05T18:30:51.149Z,97358.63
2022-08-05T18:33:22.941Z,97360.16
2022-08-05T18:36:04.911Z,97368.63
2022-08-05T18:38:36.174Z,97372.28
2022-08-05T18:41:53.654Z,97380.59
2022-08-05T18:43:52.688Z,97381.16
2022-08-05T18:46:20.124Z,97372.13
2022-08-05T18:48:52.035Z,97385.47
2022-08-05T18:52:02.734Z,97388.94
2022-08-05T18:54:31.290Z,97385.41
2022-08-05T18:57:00.874Z,97399.34
2022-08-05T18:59:44.036Z,97399.97
2022-08-05T19:02:27.104Z,97402.03
2022-08-05T19:05:02.614Z,97408.22
2022-08-05T19:07:46.725Z,97404.63
2022-08-05T19:10:28.459Z,97400.31
2022-08-05T19:12:56.669Z,97410.75
2022-08-05T19:15:57.819Z,97414.22
2022-08-05T19:18:20.760Z,97416.28
2022-08-05T19:20:52.021Z,97421.81
2022-08-05T19:24:04.235Z,97429.56
2022-08-05T19:26:08.437Z,97435.88
2022-08-05T19:28:41.526Z,97435.72
2022-08-05T19:31:09.502Z,97438.50
2022-08-05T19:33:55.687Z,97437.69
2022-08-05T19:36:29.300Z,97449.91
2022-08-05T19:39:03.810Z,97452.13
2022-08-05T19:42:05.661Z,97451.03
2022-08-05T19:44:19.127Z,97453.81
2022-08-05T19:46:46.190Z,97455.66
2022-08-05T19:49:17.127Z,97462.69
2022-08-05T19:52:05.390Z,97456.41
2022-08-05T19:54:34.053Z,97461.09
2022-08-05T19:57:06.613Z,97460.28
2022-08-05T19:59:56.320Z,97463.88
2022-08-05T20:02:26.178Z,97464.53
2022-08-05T20:04:55.369Z,97466.44
2022-08-05T20:07:47.311Z,97470.56
2022-08-05T20:10:14.310Z,97470.88
2022-08-05T20:12:48.206Z,97479.16
2022-08-05T20:15:23.220Z,97483.97
2022-08-05T20:18:10.238Z,97490.22
2022-08-05T20:20:51.822Z,97505.97
2022-08-05T20:23:22.431Z,97503.28
2022-08-05T20:25:49.245Z,97508.22
2022-08-05T20:28:19.160Z,97511.47
2022-08-05T20:30:46.550Z,97506.38
2022-08-05T20:33:16.502Z,97509.16
2022-08-05T20:35:45.501Z,97516.81
2022-08-05T20:38:14.407Z,97504.91
2022-08-05T20:40:50.508Z,97515.31
2022-08-05T20:43:17.530Z,97513.94
2022-08-05T20:46:04.231Z,97521.06
2022-08-05T20:48:30.922Z,97518.28
2022-08-05T20:50:57.612Z,97524.41
2022-08-05T20:53:37.012Z,97522.94
2022-08-05T20:56:09.638Z,97524.91
2022-08-05T20:58:36.835Z,97524.06
2022-08-05T21:01:05.204Z,97523.44
2022-08-05T21:03:34.734Z,97519.22
2022-08-05T21:06:01.932Z,97528.84
2022-08-05T21:08:42.301Z,97529.53
2022-08-05T21:11:12.588Z,97526.81
2022-08-05T21:13:47.931Z,97535.91
2022-08-05T21:16:23.115Z,97535.91
2022-08-05T21:18:56.951Z,97538.88
2022-08-05T21:21:26.993Z,97550.28
2022-08-05T21:24:12.731Z,97546.00
2022-08-05T21:26:41.485Z,97552.94
2022-08-05T21:29:12.586Z,97555.91
2022-08-05T21:31:43.619Z,97544.84
2022-08-05T21:34:11.116Z,97541.34
2022-08-05T21:36:38.478Z,97543.47
2022-08-05T21:39:05.589Z,97550.53
2022-08-05T21:41:35.706Z,97546.41
2022-08-05T21:44:04.771Z,97543.56
2022-08-05T21:46:34.362Z,97547.03
2022-08-05T21:49:07.255Z,97550.28
2022-08-05T21:52:22.259Z,97550.59
2022-08-05T21:54:27.801Z,97551.16
2022-08-05T21:57:29.270Z,97554.56
2022-08-05T22:00:02.087Z,97555.97
2022-08-05T22:02:39.384Z,97553.91
2022-08-05T22:05:09.303Z,97556.53
2022-08-05T22:07:39.772Z,97552.84
2022-08-05T22:10:26.603Z,97550.31
2022-08-05T22:12:57.285Z,97548.09
2022-08-05T22:16:02.756Z,97550.88
2022-08-05T22:18:11.589Z,97558.56
2022-08-05T22:20:39.201Z,97560.78
2022-08-05T22:24:03.171Z,97570.44
2022-08-05T22:26:31.106Z,97568.06
2022-08-05T22:28:58.090Z,97577.75
2022-08-05T22:31:30.260Z,97568.31
2022-08-05T22:34:01.634Z,97574.41
2022-08-05T22:36:29.228Z,97570.09
2022-08-05T22:38:56.351Z,97580.47
2022-08-05T22:42:04.834Z,97577.97
2022-08-05T22:44:11.990Z,97588.84
2022-08-05T22:46:40.641Z,97585.31
2022-08-05T22:49:12.161Z,97596.72
2022-08-05T22:52:05.559Z,97591.91
2022-08-05T22:54:38.896Z,97593.06
2022-08-05T22:57:06.186Z,97592.97
2022-08-05T22:59:46.567Z,97594.34
2022-08-05T23:02:18.468Z,97590.19
2022-08-05T23:04:57.913Z,97588.31
2022-08-05T23:07:28.786Z,97593.97
2022-08-05T23:10:02.096Z,97591.56
2022-08-05T23:12:32.421Z,97596.47
2022-08-05T23:15:08.827Z,97604.31
2022-08-05T23:18:00.157Z,97592.72
2022-08-05T23:20:24.378Z,97599.78
2022-08-05T23:22:55.713Z,97603.88
2022-08-05T23:25:52.345Z,97608.03
2022-08-05T23:28:09.767Z,97619.22
2022-08-05T23:30:40.437Z,97614.94
2022-08-05T23:33:16.181Z,97618.50
2022-08-05T23:35:50.345Z,97626.06
2022-08-05T23:38:17.228Z,97621.63
2022-08-05T23:40:50.247Z,97620.25
2022-08-05T23:43:25.686Z,97626.38
2022-08-05T23:46:21.321Z,97617.66
2022-08-05T23:49:00.440Z,97628.25
2022-08-05T23:51:54.295Z,97626.50
2022-08-05T23:54:25.837Z,97622.00
2022-08-05T23:56:54.622Z,97635.69
2022-08-05T23:59:22.185Z,97627.63
